createdAt,value
2023-01-23T00:02:52.868Z,96.95
2023-01-23T00:06:13.348Z,97.54
2023-01-23T00:09:16.278Z,97.79
2023-01-23T00:12:19.281Z,97.69
2023-01-23T00:15:22.027Z,97.43
2023-01-23T00:18:25.037Z,97.44
2023-01-23T00:21:29.436Z,97.36
2023-01-23T00:24:32.469Z,97.32
2023-01-23T00:27:35.549Z,96.91
2023-01-23T00:30:39.182Z,96.74
2023-01-23T00:33:43.359Z,96.77
2023-01-23T00:36:46.590Z,96.39
2023-01-23T00:39:51.224Z,96.08
2023-01-23T00:42:54.397Z,95.87
2023-01-23T00:45:59.004Z,96.03
2023-01-23T00:49:02.126Z,96.20
2023-01-23T00:52:04.930Z,96.17
2023-01-23T00:55:08.908Z,96.10
2023-01-23T00:58:11.685Z,96.18
2023-01-23T01:01:16.483Z,96.39
2023-01-23T01:04:19.912Z,96.62
2023-01-23T01:07:22.988Z,96.81
2023-01-23T01:10:29.778Z,96.84
2023-01-23T01:13:33.824Z,96.71
2023-01-23T01:16:36.603Z,96.79
2023-01-23T01:19:39.709Z,97.28
2023-01-23T01:22:42.381Z,97.23
2023-01-23T01:25:46.405Z,97.47
2023-01-23T01:28:49.694Z,98.27
2023-01-23T01:31:52.877Z,98.33
2023-01-23T01:34:55.609Z,98.08
2023-01-23T01:37:59.675Z,98.18
2023-01-23T01:41:02.525Z,98.11
2023-01-23T01:44:05.591Z,98.20
2023-01-23T01:47:10.185Z,98.18
2023-01-23T01:50:13.882Z,98.12
2023-01-23T01:53:16.818Z,98.01
2023-01-23T01:56:20.913Z,98.36
2023-01-23T01:59:27.346Z,98.69
2023-01-23T02:02:33.936Z,98.99
2023-01-23T02:05:41.686Z,99.30
2023-01-23T02:08:58.551Z,99.08
2023-01-23T02:12:02.837Z,99.19
2023-01-23T02:15:07.652Z,99.03
2023-01-23T02:18:10.370Z,98.99
2023-01-23T02:21:15.826Z,99.43
2023-01-23T02:24:40.410Z,99.40
2023-01-23T02:27:43.615Z,99.24
2023-01-23T02:30:47.269Z,99.34
2023-01-23T02:33:56.190Z,99.22
2023-01-23T02:36:59.940Z,99.34
2023-01-23T02:40:03.806Z,99.14
2023-01-23T02:43:11.156Z,99.34
2023-01-23T02:46:15.971Z,99.18
2023-01-23T02:49:18.749Z,99.14
2023-01-23T02:52:23.545Z,99.18
2023-01-23T02:55:29.903Z,98.95
2023-01-23T02:58:51.886Z,98.80
2023-01-23T03:01:54.880Z,98.96
2023-01-23T03:04:57.797Z,99.04
2023-01-23T03:08:03.362Z,98.79
2023-01-23T03:11:06.535Z,98.77
2023-01-23T03:14:18.351Z,98.88
2023-01-23T03:17:22.906Z,98.84
2023-01-23T03:20:27.080Z,98.75
2023-01-23T03:23:30.444Z,98.65
2023-01-23T03:26:33.463Z,98.63
2023-01-23T03:29:55.442Z,98.29
2023-01-23T03:32:58.235Z,98.29
2023-01-23T03:36:01.490Z,98.07
2023-01-23T03:39:24.689Z,98.10
2023-01-23T03:42:27.899Z,98.04
2023-01-23T03:45:31.790Z,98.00
2023-01-23T03:48:34.951Z,98.30
2023-01-23T03:51:37.806Z,98.16
2023-01-23T03:54:42.388Z,98.04
2023-01-23T03:57:45.346Z,98.25
2023-01-23T04:00:49.035Z,98.43
2023-01-23T04:03:52.554Z,98.49
2023-01-23T04:06:55.335Z,98.68
2023-01-23T04:09:58.583Z,98.69
2023-01-23T04:13:01.434Z,98.70
2023-01-23T04:16:06.362Z,99.01
2023-01-23T04:19:09.292Z,98.96
2023-01-23T04:22:12.431Z,98.75
2023-01-23T04:25:15.414Z,99.02
2023-01-23T04:28:19.271Z,99.13
2023-01-23T04:31:22.710Z,99.33
2023-01-23T04:34:25.973Z,98.95
2023-01-23T04:37:28.870Z,98.62
2023-01-23T04:40:32.424Z,98.25
2023-01-23T04:43:36.116Z,97.88
2023-01-23T04:46:41.105Z,97.94
2023-01-23T04:49:44.177Z,98.12
2023-01-23T04:52:47.311Z,98.14
2023-01-23T04:55:50.500Z,97.90
2023-01-23T04:58:53.620Z,97.94
2023-01-23T05:01:57.949Z,98.08
2023-01-23T05:05:01.635Z,98.32
2023-01-23T05:08:04.669Z,98.32
2023-01-23T05:11:08.098Z,98.17
2023-01-23T05:14:10.861Z,98.14
2023-01-23T05:17:15.128Z,97.80
2023-01-23T05:20:18.249Z,97.96
2023-01-23T05:23:21.499Z,97.88
2023-01-23T05:26:24.692Z,98.05
2023-01-23T05:29:29.691Z,98.40
2023-01-23T05:32:52.271Z,98.56
2023-01-23T05:36:00.378Z,98.69
2023-01-23T05:39:03.228Z,98.96
2023-01-23T05:42:06.304Z,98.53
2023-01-23T05:45:13.848Z,98.85
2023-01-23T05:48:17.107Z,98.87
2023-01-23T05:51:19.965Z,98.99
2023-01-23T05:54:23.408Z,99.05
2023-01-23T05:57:27.345Z,98.93
2023-01-23T06:00:33.215Z,98.63
2023-01-23T06:03:36.986Z,98.41
2023-01-23T06:06:40.025Z,98.08
2023-01-23T06:09:44.334Z,97.86
2023-01-23T06:12:47.072Z,97.87
2023-01-23T06:15:50.120Z,98.12
2023-01-23T06:18:53.337Z,98.39
2023-01-23T06:21:56.568Z,98.21
2023-01-23T06:24:59.491Z,98.11
2023-01-23T06:28:02.700Z,98.61
2023-01-23T06:31:07.408Z,98.60
2023-01-23T06:34:11.393Z,98.52
2023-01-23T06:37:14.874Z,98.80
2023-01-23T06:40:19.167Z,98.67
2023-01-23T06:43:23.403Z,98.92
2023-01-23T06:46:26.603Z,99.22
2023-01-23T06:49:29.662Z,99.80
2023-01-23T06:52:33.744Z,99.73
2023-01-23T06:55:36.930Z,99.31
2023-01-23T06:58:43.680Z,99.86
2023-01-23T07:01:50.675Z,100.00
2023-01-23T07:04:53.986Z,100.00
2023-01-23T07:07:57.781Z,100.00
2023-01-23T07:11:01.911Z,100.00
2023-01-23T07:14:05.588Z,100.00
2023-01-23T07:17:09.043Z,100.00
2023-01-23T07:20:12.529Z,100.00
2023-01-23T07:23:16.155Z,100.00
2023-01-23T07:26:19.058Z,100.00
2023-01-23T07:29:22.074Z,100.00
2023-01-23T07:32:25.279Z,100.00
2023-01-23T07:35:28.427Z,100.00
2023-01-23T07:38:31.250Z,100.00
2023-01-23T07:41:34.225Z,100.00
2023-01-23T07:44:37.880Z,100.00
2023-01-23T07:47:41.022Z,100.00
2023-01-23T07:50:43.863Z,100.00
2023-01-23T07:53:46.918Z,100.00
2023-01-23T07:56:51.292Z,100.00
2023-01-23T07:59:54.621Z,100.00
2023-01-23T08:02:57.701Z,100.00
2023-01-23T08:06:01.388Z,100.00
2023-01-23T08:09:04.347Z,100.00
2023-01-23T08:12:07.619Z,100.00
2023-01-23T08:15:10.545Z,100.00
2023-01-23T08:18:13.720Z,100.00
2023-01-23T08:21:16.381Z,100.00
2023-01-23T08:24:19.952Z,100.00
2023-01-23T08:27:22.697Z,100.00
2023-01-23T08:30:25.885Z,100.00
2023-01-23T08:33:28.949Z,100.00
2023-01-23T08:36:32.297Z,100.00
2023-01-23T08:39:35.593Z,100.00
2023-01-23T08:42:38.611Z,100.00
2023-01-23T08:45:42.427Z,100.00
2023-01-23T08:48:45.448Z,100.00
2023-01-23T08:51:48.187Z,100.00
2023-01-23T08:54:51.207Z,100.00
2023-01-23T08:57:54.113Z,100.00
2023-01-23T09:00:57.925Z,99.77
2023-01-23T09:04:00.772Z,99.39
2023-01-23T09:07:03.862Z,98.80
2023-01-23T09:10:07.712Z,98.82
2023-01-23T09:13:11.033Z,98.48
2023-01-23T09:16:14.337Z,98.28
2023-01-23T09:19:17.605Z,98.29
2023-01-23T09:22:20.517Z,98.70
2023-01-23T09:25:23.605Z,98.50
2023-01-23T09:28:26.243Z,98.78
2023-01-23T09:31:29.539Z,98.34
2023-01-23T09:34:32.753Z,98.94
2023-01-23T09:37:58.599Z,99.04
2023-01-23T09:41:19.369Z,98.90
2023-01-23T09:44:40.664Z,99.18
2023-01-23T09:48:03.295Z,98.96
2023-01-23T09:51:17.142Z,98.64
2023-01-23T09:54:43.419Z,98.76
2023-01-23T09:57:58.157Z,98.87
2023-01-23T10:01:00.956Z,99.31
2023-01-23T10:04:05.740Z,99.17
2023-01-23T10:07:14.446Z,99.25
2023-01-23T10:10:45.306Z,99.53
2023-01-23T10:13:50.842Z,99.12
2023-01-23T10:17:15.238Z,98.26
2023-01-23T10:20:30.429Z,98.00
2023-01-23T10:23:57.950Z,96.87
2023-01-23T10:27:21.949Z,96.82
2023-01-23T10:30:33.675Z,96.77
2023-01-23T10:33:49.379Z,97.74
2023-01-23T10:37:13.715Z,97.04
2023-01-23T10:40:39.141Z,96.85
2023-01-23T10:43:43.785Z,96.42
2023-01-23T10:46:59.651Z,96.87
2023-01-23T10:50:04.899Z,96.83
2023-01-23T10:53:16.481Z,96.85
2023-01-23T10:56:20.580Z,96.96
2023-01-23T10:59:37.036Z,97.02
2023-01-23T11:02:41.143Z,96.99
2023-01-23T11:05:53.007Z,96.90
2023-01-23T11:09:04.203Z,97.42
2023-01-23T11:12:14.718Z,97.46
2023-01-23T11:15:30.257Z,97.17
2023-01-23T11:18:36.224Z,97.50
2023-01-23T11:21:50.704Z,97.46
2023-01-23T11:24:53.518Z,97.22
2023-01-23T11:28:27.947Z,97.36
2023-01-23T11:31:32.467Z,97.74
2023-01-23T11:34:45.999Z,97.33
2023-01-23T11:37:48.808Z,97.25
2023-01-23T11:40:51.914Z,97.59
2023-01-23T11:43:55.059Z,98.83
2023-01-23T11:47:28.691Z,98.55
2023-01-23T11:50:55.193Z,98.78
2023-01-23T11:54:17.310Z,98.76
2023-01-23T11:57:41.776Z,98.39
2023-01-23T12:00:53.953Z,98.35
2023-01-23T12:04:10.874Z,98.25
2023-01-23T12:07:21.131Z,97.51
2023-01-23T12:10:29.962Z,98.28
2023-01-23T12:13:44.667Z,98.64
2023-01-23T12:17:02.954Z,98.20
2023-01-23T12:20:23.988Z,98.08
2023-01-23T12:23:27.013Z,97.44
2023-01-23T12:26:31.692Z,96.83
2023-01-23T12:29:46.698Z,97.48
2023-01-23T12:33:01.351Z,97.25
2023-01-23T12:36:20.069Z,97.07
2023-01-23T12:39:44.122Z,98.08
2023-01-23T12:42:55.893Z,98.80
2023-01-23T12:46:06.400Z,98.85
2023-01-23T12:49:46.482Z,99.20
2023-01-23T12:53:24.997Z,99.54
2023-01-23T12:56:31.655Z,99.84
2023-01-23T12:59:55.163Z,99.98
2023-01-23T13:03:10.463Z,100.00
2023-01-23T13:06:13.110Z,100.00
2023-01-23T13:09:47.254Z,100.00
2023-01-23T13:12:54.405Z,100.00
2023-01-23T13:16:11.881Z,100.00
2023-01-23T13:19:42.375Z,99.81
2023-01-23T13:22:45.627Z,100.00
2023-01-23T13:25:49.029Z,100.00
2023-01-23T13:28:57.587Z,100.00
2023-01-23T13:32:28.227Z,100.00
2023-01-23T13:35:40.081Z,100.00
2023-01-23T13:38:42.830Z,100.00
2023-01-23T13:41:53.584Z,100.00
2023-01-23T13:45:21.581Z,100.00
2023-01-23T14:20:19.548Z,100.00
2023-01-23T14:23:37.163Z,100.00
2023-01-23T14:26:50.058Z,100.00
2023-01-23T14:30:00.344Z,100.00
2023-01-23T14:33:11.595Z,100.00
2023-01-23T14:36:19.783Z,100.00
2023-01-23T14:39:26.814Z,100.00
2023-01-23T14:42:30.906Z,100.00
2023-01-23T14:45:35.167Z,100.00
2023-01-23T14:48:43.112Z,100.00
2023-01-23T14:52:01.374Z,100.00
2023-01-23T14:55:08.103Z,100.00
2023-01-23T14:58:19.329Z,100.00
2023-01-23T15:01:22.097Z,100.00
2023-01-23T15:04:28.486Z,100.00
2023-01-23T15:07:31.264Z,100.00
2023-01-23T15:10:43.176Z,100.00
2023-01-23T15:13:45.940Z,100.00
2023-01-23T15:16:51.466Z,100.00
2023-01-23T15:20:01.694Z,100.00
2023-01-23T15:23:31.737Z,100.00
2023-01-23T15:26:45.506Z,100.00
2023-01-23T15:29:48.618Z,100.00
2023-01-23T15:32:51.392Z,100.00
2023-01-23T15:36:06.875Z,100.00
2023-01-23T15:39:21.104Z,100.00
2023-01-23T15:42:32.629Z,100.00
2023-01-23T15:45:35.392Z,100.00
2023-01-23T15:48:38.465Z,100.00
2023-01-23T15:51:41.549Z,100.00
2023-01-23T15:54:44.750Z,100.00
2023-01-23T15:57:47.664Z,100.00
2023-01-23T16:00:50.697Z,100.00
2023-01-23T16:03:53.773Z,100.00
2023-01-23T16:06:58.326Z,100.00
2023-01-23T16:10:08.399Z,100.00
2023-01-23T16:13:13.666Z,100.00
2023-01-23T16:16:18.699Z,100.00
2023-01-23T16:19:21.505Z,100.00
2023-01-23T16:22:29.613Z,100.00
2023-01-23T16:25:43.963Z,100.00
2023-01-23T16:28:48.325Z,100.00
2023-01-23T16:31:51.094Z,100.00
2023-01-23T16:34:54.454Z,100.00
2023-01-23T16:37:57.434Z,100.00
2023-01-23T16:41:01.936Z,100.00
2023-01-23T16:44:04.856Z,100.00
2023-01-23T16:47:08.369Z,100.00
2023-01-23T16:50:16.573Z,99.80
2023-01-23T16:53:27.294Z,99.18
2023-01-23T16:56:37.693Z,98.90
2023-01-23T16:59:41.717Z,99.16
2023-01-23T17:02:49.515Z,98.69
2023-01-23T17:05:56.057Z,98.33
2023-01-23T17:08:59.237Z,98.44
2023-01-23T17:12:03.138Z,98.43
2023-01-23T17:15:07.149Z,98.22
2023-01-23T17:18:25.473Z,97.75
2023-01-23T17:21:34.266Z,97.31
2023-01-23T17:24:38.418Z,97.86
2023-01-23T17:27:45.550Z,98.19
2023-01-23T17:30:54.512Z,97.97
2023-01-23T17:33:57.697Z,97.41
2023-01-23T17:37:02.174Z,97.39
2023-01-23T17:40:06.017Z,97.53
2023-01-23T17:43:12.826Z,97.77
2023-01-23T17:46:31.791Z,97.82
2023-01-23T17:49:36.820Z,97.59
2023-01-23T17:52:40.073Z,97.18
2023-01-23T17:55:48.120Z,97.42
2023-01-23T17:58:51.797Z,96.96
2023-01-23T18:01:56.524Z,96.93
2023-01-23T18:05:01.167Z,96.23
2023-01-23T18:08:06.933Z,96.45
2023-01-23T18:11:19.860Z,96.27
2023-01-23T18:14:52.681Z,96.15
2023-01-23T18:18:05.275Z,95.90
2023-01-23T18:21:15.659Z,96.20
2023-01-23T18:24:31.079Z,95.74
2023-01-23T18:27:39.439Z,96.20
2023-01-23T18:30:47.672Z,96.29
2023-01-23T18:34:13.050Z,96.50
2023-01-23T18:37:54.921Z,96.76
2023-01-23T18:41:22.197Z,96.72
2023-01-23T18:44:29.943Z,96.54
2023-01-23T18:47:34.558Z,96.57
2023-01-23T18:50:54.058Z,96.19
2023-01-23T18:54:20.410Z,95.95
2023-01-23T18:57:43.767Z,95.93
2023-01-23T19:01:13.361Z,95.64
2023-01-23T19:04:18.497Z,95.58
2023-01-23T19:07:23.543Z,95.53
2023-01-23T19:10:37.289Z,95.63
2023-01-23T19:14:05.602Z,95.80
2023-01-23T19:17:19.348Z,95.81
2023-01-23T19:20:36.641Z,95.56
2023-01-23T19:24:07.189Z,95.81
2023-01-23T19:27:31.077Z,95.87
2023-01-23T19:30:37.574Z,95.41
2023-01-23T19:33:41.464Z,95.32
2023-01-23T19:36:46.010Z,95.84
2023-01-23T19:39:50.094Z,96.70
2023-01-23T19:43:12.765Z,96.56
2023-01-23T19:46:19.475Z,96.48
2023-01-23T19:49:26.290Z,96.44
2023-01-23T19:52:29.869Z,96.35
2023-01-23T19:55:40.038Z,95.59
2023-01-23T19:58:44.325Z,95.66
2023-01-23T20:01:53.723Z,95.89
2023-01-23T20:04:59.270Z,95.44
2023-01-23T20:08:02.865Z,96.06
2023-01-23T20:11:07.257Z,96.63
2023-01-23T20:14:14.233Z,96.07
2023-01-23T20:17:18.545Z,95.83
2023-01-23T20:20:23.221Z,96.14
2023-01-23T20:23:29.500Z,96.03
2023-01-23T20:26:33.462Z,96.42
2023-01-23T20:29:42.677Z,96.26
2023-01-23T20:32:46.808Z,96.37
2023-01-23T20:35:54.050Z,96.13
2023-01-23T20:38:58.180Z,96.09
2023-01-23T20:42:04.699Z,95.17
2023-01-23T20:45:09.178Z,94.93
2023-01-23T20:48:13.474Z,94.76
2023-01-23T20:51:18.154Z,94.35
2023-01-23T20:54:22.369Z,94.46
2023-01-23T20:57:45.817Z,95.72
2023-01-23T21:00:49.964Z,95.43
2023-01-23T21:03:53.777Z,95.14
2023-01-23T21:07:00.062Z,94.43
2023-01-23T21:10:03.761Z,94.15
2023-01-23T21:13:09.199Z,93.84
2023-01-23T21:16:15.162Z,93.82
2023-01-23T21:19:19.590Z,94.32
2023-01-23T21:22:22.682Z,94.26
2023-01-23T21:25:25.879Z,94.38
2023-01-23T21:28:31.464Z,94.29
2023-01-23T21:31:39.491Z,94.28
2023-01-23T21:34:42.391Z,94.40
2023-01-23T21:37:45.900Z,94.18
2023-01-23T21:40:48.684Z,94.99
2023-01-23T21:43:51.982Z,95.36
2023-01-23T21:46:54.735Z,96.01
2023-01-23T21:49:57.839Z,96.70
2023-01-23T21:53:00.620Z,98.87
2023-01-23T21:56:04.556Z,98.77
2023-01-23T21:59:07.299Z,98.36
2023-01-23T22:02:10.589Z,99.21
2023-01-23T22:05:13.747Z,100.00
2023-01-23T22:08:16.447Z,99.25
2023-01-23T22:11:19.940Z,98.59
2023-01-23T22:14:22.969Z,98.32
2023-01-23T22:17:25.945Z,97.50
2023-01-23T22:20:28.697Z,96.95
2023-01-23T22:23:32.431Z,96.62
2023-01-23T22:26:35.085Z,96.74
2023-01-23T22:29:38.142Z,97.16
2023-01-23T22:32:40.820Z,96.53
2023-01-23T22:35:44.883Z,95.88
2023-01-23T22:38:52.312Z,95.85
2023-01-23T22:41:55.439Z,95.93
2023-01-23T22:44:58.118Z,95.45
2023-01-23T22:48:01.355Z,95.01
2023-01-23T22:51:06.227Z,95.40
2023-01-23T22:54:09.375Z,95.58
2023-01-23T22:57:12.174Z,95.71
2023-01-23T23:00:16.685Z,96.08
2023-01-23T23:03:21.343Z,96.35
2023-01-23T23:06:24.687Z,96.24
2023-01-23T23:09:27.641Z,97.12
2023-01-23T23:12:30.895Z,96.67
2023-01-23T23:15:35.234Z,96.51
2023-01-23T23:18:39.463Z,96.54
2023-01-23T23:21:42.180Z,96.55
2023-01-23T23:24:45.300Z,96.25
2023-01-23T23:27:47.999Z,96.33
2023-01-23T23:30:51.979Z,95.87
2023-01-23T23:33:55.052Z,95.66
2023-01-23T23:36:58.136Z,96.00
2023-01-23T23:40:00.850Z,96.05
2023-01-23T23:43:04.151Z,96.01
2023-01-23T23:46:09.322Z,96.29
2023-01-23T23:49:12.372Z,96.78
2023-01-23T23:52:15.101Z,97.06
2023-01-23T23:55:18.182Z,96.51
2023-01-23T23:58:21.011Z,97.50
